sensor_id;sensor_type;location;lat;lon;timestamp;pressure;altitude;pressure_sealevel;temperature;humidity
26807;BME280;14380;49.910;6.792;2023-07-02T00:01:32;98194.91;;;15.48;100.00
26807;BME280;14380;49.910;6.792;2023-07-02T00:03:59;98199.72;;;15.33;100.00
26807;BME280;14380;49.910;6.792;2023-07-02T00:06:26;98199.97;;;15.30;100.00
26807;BME280;14380;49.910;6.792;2023-07-02T00:08:52;98196.94;;;15.35;100.00
26807;BME280;14380;49.910;6.792;2023-07-02T00:11:19;98198.38;;;15.18;100.00
26807;BME280;14380;49.910;6.792;2023-07-02T00:13:46;98197.03;;;15.12;100.00
26807;BME280;14380;49.910;6.792;2023-07-02T00:16:12;98195.53;;;14.98;100.00
26807;BME280;14380;49.910;6.792;2023-07-02T00:18:40;98201.75;;;15.20;100.00
26807;BME280;14380;49.910;6.792;2023-07-02T00:21:07;98205.78;;;14.70;100.00
26807;BME280;14380;49.910;6.792;2023-07-02T00:23:38;98205.44;;;14.96;100.00
26807;BME280;14380;49.910;6.792;2023-07-02T00:26:05;98208.59;;;15.22;100.00
26807;BME280;14380;49.910;6.792;2023-07-02T00:28:31;98203.41;;;14.99;100.00
26807;BME280;14380;49.910;6.792;2023-07-02T00:30:58;98202.38;;;15.33;100.00
26807;BME280;14380;49.910;6.792;2023-07-02T00:33:26;98202.81;;;15.17;100.00
26807;BME280;14380;49.910;6.792;2023-07-02T00:35:55;98198.91;;;15.00;100.00
26807;BME280;14380;49.910;6.792;2023-07-02T00:38:22;98211.09;;;14.58;100.00
26807;BME280;14380;49.910;6.792;2023-07-02T00:40:49;98198.78;;;14.57;100.00
26807;BME280;14380;49.910;6.792;2023-07-02T00:43:15;98199.81;;;14.66;100.00
26807;BME280;14380;49.910;6.792;2023-07-02T00:45:42;98196.75;;;14.94;100.00
26807;BME280;14380;49.910;6.792;2023-07-02T00:48:10;98202.34;;;14.79;100.00
26807;BME280;14380;49.910;6.792;2023-07-02T00:50:39;98212.88;;;14.58;100.00
26807;BME280;14380;49.910;6.792;2023-07-02T00:53:07;98203.59;;;14.64;100.00
26807;BME280;14380;49.910;6.792;2023-07-02T00:55:33;98201.69;;;14.43;100.00
26807;BME280;14380;49.910;6.792;2023-07-02T00:58:00;98203.13;;;14.58;100.00
26807;BME280;14380;49.910;6.792;2023-07-02T01:00:27;98198.03;;;14.78;100.00
26807;BME280;14380;49.910;6.792;2023-07-02T01:02:54;98194.19;;;14.71;100.00
26807;BME280;14380;49.910;6.792;2023-07-02T01:05:25;98205.44;;;14.96;100.00
26807;BME280;14380;49.910;6.792;2023-07-02T01:07:52;98198.41;;;15.06;100.00
26807;BME280;14380;49.910;6.792;2023-07-02T01:10:20;98198.47;;;14.83;100.00
26807;BME280;14380;49.910;6.792;2023-07-02T01:12:47;98210.81;;;15.17;100.00
26807;BME280;14380;49.910;6.792;2023-07-02T01:15:14;98199.69;;;15.12;100.00
26807;BME280;14380;49.910;6.792;2023-07-02T01:17:41;98192.41;;;15.25;100.00
26807;BME280;14380;49.910;6.792;2023-07-02T01:20:11;98194.03;;;15.38;100.00
26807;BME280;14380;49.910;6.792;2023-07-02T01:22:38;98197.56;;;15.27;100.00
26807;BME280;14380;49.910;6.792;2023-07-02T01:25:05;98199.19;;;15.39;100.00
26807;BME280;14380;49.910;6.792;2023-07-02T01:27:34;98198.75;;;15.55;100.00
26807;BME280;14380;49.910;6.792;2023-07-02T01:30:01;98195.97;;;15.57;100.00
26807;BME280;14380;49.910;6.792;2023-07-02T01:32:29;98193.16;;;15.58;100.00
26807;BME280;14380;49.910;6.792;2023-07-02T01:34:56;98193.91;;;15.70;100.00
26807;BME280;14380;49.910;6.792;2023-07-02T01:37:25;98194.53;;;15.74;100.00
26807;BME280;14380;49.910;6.792;2023-07-02T01:39:52;98204.03;;;15.76;100.00
26807;BME280;14380;49.910;6.792;2023-07-02T01:42:19;98202.09;;;16.00;100.00
26807;BME280;14380;49.910;6.792;2023-07-02T01:44:47;98188.13;;;16.08;100.00
26807;BME280;14380;49.910;6.792;2023-07-02T01:47:15;98196.66;;;16.01;100.00
26807;BME280;14380;49.910;6.792;2023-07-02T01:49:42;98195.25;;;16.07;100.00
26807;BME280;14380;49.910;6.792;2023-07-02T01:52:08;98202.69;;;16.03;100.00
26807;BME280;14380;49.910;6.792;2023-07-02T01:54:37;98196.25;;;16.06;100.00
26807;BME280;14380;49.910;6.792;2023-07-02T01:57:04;98196.53;;;16.13;100.00
26807;BME280;14380;49.910;6.792;2023-07-02T01:59:30;98201.22;;;16.20;100.00
26807;BME280;14380;49.910;6.792;2023-07-02T02:01:57;98198.53;;;16.20;100.00
26807;BME280;14380;49.910;6.792;2023-07-02T02:04:24;98199.88;;;16.46;100.00
26807;BME280;14380;49.910;6.792;2023-07-02T02:06:50;98203.09;;;16.40;100.00
26807;BME280;14380;49.910;6.792;2023-07-02T02:09:17;98202.00;;;16.52;100.00
26807;BME280;14380;49.910;6.792;2023-07-02T02:11:47;98202.38;;;16.28;100.00
26807;BME280;14380;49.910;6.792;2023-07-02T02:14:14;98209.13;;;16.42;100.00
26807;BME280;14380;49.910;6.792;2023-07-02T02:16:40;98203.25;;;16.48;100.00
26807;BME280;14380;49.910;6.792;2023-07-02T02:19:07;98210.19;;;16.70;100.00
26807;BME280;14380;49.910;6.792;2023-07-02T02:21:33;98209.66;;;16.35;100.00
26807;BME280;14380;49.910;6.792;2023-07-02T02:24:00;98207.59;;;16.49;100.00
26807;BME280;14380;49.910;6.792;2023-07-02T02:26:26;98217.84;;;16.54;100.00
26807;BME280;14380;49.910;6.792;2023-07-02T02:28:54;98205.94;;;16.48;100.00
26807;BME280;14380;49.910;6.792;2023-07-02T02:31:21;98204.09;;;16.58;100.00
26807;BME280;14380;49.910;6.792;2023-07-02T02:33:47;98206.22;;;16.64;100.00
26807;BME280;14380;49.910;6.792;2023-07-02T02:36:14;98205.75;;;16.40;100.00
26807;BME280;14380;49.910;6.792;2023-07-02T02:38:41;98206.06;;;16.56;100.00
26807;BME280;14380;49.910;6.792;2023-07-02T02:41:07;98200.16;;;16.53;100.00
26807;BME280;14380;49.910;6.792;2023-07-02T02:43:34;98200.13;;;16.33;100.00
26807;BME280;14380;49.910;6.792;2023-07-02T02:46:02;98199.34;;;16.62;100.00
26807;BME280;14380;49.910;6.792;2023-07-02T02:48:28;98199.06;;;16.55;100.00
26807;BME280;14380;49.910;6.792;2023-07-02T02:50:55;98205.22;;;16.56;100.00
26807;BME280;14380;49.910;6.792;2023-07-02T02:53:22;98194.16;;;16.60;100.00
26807;BME280;14380;49.910;6.792;2023-07-02T02:55:48;98194.47;;;16.67;100.00
26807;BME280;14380;49.910;6.792;2023-07-02T02:58:15;98191.25;;;16.83;100.00
26807;BME280;14380;49.910;6.792;2023-07-02T03:00:41;98190.97;;;16.86;100.00
26807;BME280;14380;49.910;6.792;2023-07-02T03:03:12;98200.88;;;16.55;100.00
26807;BME280;14380;49.910;6.792;2023-07-02T03:05:38;98190.22;;;16.55;100.00
26807;BME280;14380;49.910;6.792;2023-07-02T03:08:05;98195.53;;;16.45;100.00
26807;BME280;14380;49.910;6.792;2023-07-02T03:10:32;98190.81;;;16.68;100.00
26807;BME280;14380;49.910;6.792;2023-07-02T03:12:58;98200.59;;;16.48;100.00
26807;BME280;14380;49.910;6.792;2023-07-02T03:15:25;98196.25;;;16.57;100.00
26807;BME280;14380;49.910;6.792;2023-07-02T03:17:52;98193.03;;;16.63;100.00
26807;BME280;14380;49.910;6.792;2023-07-02T03:20:20;98201.53;;;16.37;100.00
26807;BME280;14380;49.910;6.792;2023-07-02T03:22:46;98204.88;;;16.29;100.00
26807;BME280;14380;49.910;6.792;2023-07-02T03:25:13;98211.06;;;15.99;100.00
26807;BME280;14380;49.910;6.792;2023-07-02T03:27:40;98209.19;;;16.20;100.00
26807;BME280;14380;49.910;6.792;2023-07-02T03:30:07;98202.19;;;16.19;100.00
26807;BME280;14380;49.910;6.792;2023-07-02T03:32:34;98206.34;;;16.12;100.00
26807;BME280;14380;49.910;6.792;2023-07-02T03:35:00;98199.13;;;16.34;100.00
26807;BME280;14380;49.910;6.792;2023-07-02T03:37:29;98208.66;;;16.27;100.00
26807;BME280;14380;49.910;6.792;2023-07-02T03:39:55;98207.72;;;16.38;100.00
26807;BME280;14380;49.910;6.792;2023-07-02T03:42:23;98214.28;;;16.33;100.00
26807;BME280;14380;49.910;6.792;2023-07-02T03:44:50;98211.84;;;16.11;100.00
26807;BME280;14380;49.910;6.792;2023-07-02T03:47:16;98215.72;;;16.38;100.00
26807;BME280;14380;49.910;6.792;2023-07-02T03:49:47;98225.69;;;16.45;100.00
26807;BME280;14380;49.910;6.792;2023-07-02T03:52:14;98225.78;;;16.34;100.00
26807;BME280;14380;49.910;6.792;2023-07-02T03:54:42;98224.25;;;16.41;100.00
26807;BME280;14380;49.910;6.792;2023-07-02T03:57:08;98221.22;;;16.56;100.00
26807;BME280;14380;49.910;6.792;2023-07-02T03:59:35;98228.78;;;16.50;100.00
26807;BME280;14380;49.910;6.792;2023-07-02T04:02:01;98232.25;;;16.41;100.00
26807;BME280;14380;49.910;6.792;2023-07-02T04:04:28;98229.63;;;16.51;100.00
26807;BME280;14380;49.910;6.792;2023-07-02T04:06:55;98233.66;;;16.45;100.00
26807;BME280;14380;49.910;6.792;2023-07-02T04:09:21;98242.16;;;16.70;100.00
26807;BME280;14380;49.910;6.792;2023-07-02T04:11:49;98236.84;;;16.70;100.00
26807;BME280;14380;49.910;6.792;2023-07-02T04:14:16;98245.84;;;16.89;100.00
26807;BME280;14380;49.910;6.792;2023-07-02T04:16:43;98243.69;;;16.63;100.00
26807;BME280;14380;49.910;6.792;2023-07-02T04:19:10;98248.22;;;16.82;100.00
26807;BME280;14380;49.910;6.792;2023-07-02T04:21:37;98247.94;;;16.75;100.00
26807;BME280;14380;49.910;6.792;2023-07-02T04:24:04;98256.75;;;16.76;100.00
26807;BME280;14380;49.910;6.792;2023-07-02T04:26:31;98259.84;;;16.71;100.00
26807;BME280;14380;49.910;6.792;2023-07-02T04:28:59;98261.53;;;16.72;100.00
26807;BME280;14380;49.910;6.792;2023-07-02T04:31:25;98261.25;;;16.75;100.00
26807;BME280;14380;49.910;6.792;2023-07-02T04:33:52;98267.69;;;16.73;100.00
26807;BME280;14380;49.910;6.792;2023-07-02T04:36:18;98269.09;;;16.67;100.00
26807;BME280;14380;49.910;6.792;2023-07-02T04:38:45;98272.16;;;16.62;100.00
26807;BME280;14380;49.910;6.792;2023-07-02T04:44:35;98284.28;;;16.76;100.00
26807;BME280;14380;49.910;6.792;2023-07-02T04:47:02;98279.94;;;16.85;100.00
26807;BME280;14380;49.910;6.792;2023-07-02T04:49:28;98286.31;;;16.53;100.00
26807;BME280;14380;49.910;6.792;2023-07-02T04:51:55;98289.88;;;16.73;100.00
26807;BME280;14380;49.910;6.792;2023-07-02T04:54:22;98283.56;;;16.74;100.00
26807;BME280;14380;49.910;6.792;2023-07-02T04:56:48;98296.47;;;16.69;100.00
26807;BME280;14380;49.910;6.792;2023-07-02T04:59:16;98293.75;;;16.59;100.00
26807;BME280;14380;49.910;6.792;2023-07-02T05:01:44;98294.16;;;16.55;100.00
26807;BME280;14380;49.910;6.792;2023-07-02T05:04:10;98295.69;;;16.57;100.00
26807;BME280;14380;49.910;6.792;2023-07-02T05:06:37;98296.97;;;16.53;100.00
26807;BME280;14380;49.910;6.792;2023-07-02T05:09:04;98300.28;;;16.86;100.00
26807;BME280;14380;49.910;6.792;2023-07-02T05:11:30;98302.16;;;16.95;100.00
26807;BME280;14380;49.910;6.792;2023-07-02T05:13:57;98303.16;;;16.63;100.00
26807;BME280;14380;49.910;6.792;2023-07-02T05:16:24;98301.47;;;17.03;100.00
26807;BME280;14380;49.910;6.792;2023-07-02T05:18:52;98291.25;;;17.77;100.00
26807;BME280;14380;49.910;6.792;2023-07-02T05:21:19;98297.56;;;18.53;96.77
26807;BME280;14380;49.910;6.792;2023-07-02T05:23:46;98298.72;;;18.69;93.54
26807;BME280;14380;49.910;6.792;2023-07-02T05:26:13;98293.66;;;19.22;91.26
26807;BME280;14380;49.910;6.792;2023-07-02T05:28:40;98298.69;;;19.07;89.63
26807;BME280;14380;49.910;6.792;2023-07-02T05:31:06;98302.16;;;19.17;90.14
26807;BME280;14380;49.910;6.792;2023-07-02T05:33:33;98294.88;;;19.82;88.77
26807;BME280;14380;49.910;6.792;2023-07-02T05:36:01;98306.34;;;19.74;89.79
26807;BME280;14380;49.910;6.792;2023-07-02T05:38:27;98298.13;;;20.12;86.88
26807;BME280;14380;49.910;6.792;2023-07-02T05:40:54;98310.19;;;19.17;89.45
26807;BME280;14380;49.910;6.792;2023-07-02T05:43:20;98305.47;;;20.10;88.15
26807;BME280;14380;49.910;6.792;2023-07-02T05:45:47;98307.28;;;20.35;85.79
26807;BME280;14380;49.910;6.792;2023-07-02T05:48:13;98311.06;;;20.77;85.00
26807;BME280;14380;49.910;6.792;2023-07-02T05:50:40;98311.16;;;20.33;85.88
26807;BME280;14380;49.910;6.792;2023-07-02T05:53:08;98322.50;;;19.82;87.39
26807;BME280;14380;49.910;6.792;2023-07-02T05:55:35;98315.63;;;20.50;85.33
26807;BME280;14380;49.910;6.792;2023-07-02T05:58:01;98320.34;;;20.91;84.36
26807;BME280;14380;49.910;6.792;2023-07-02T06:00:28;98320.16;;;20.85;83.77
26807;BME280;14380;49.910;6.792;2023-07-02T06:02:54;98316.03;;;20.38;86.15
26807;BME280;14380;49.910;6.792;2023-07-02T06:05:21;98321.72;;;20.69;86.75
26807;BME280;14380;49.910;6.792;2023-07-02T06:07:48;98316.13;;;20.54;86.08
26807;BME280;14380;49.910;6.792;2023-07-02T06:10:15;98323.38;;;20.35;85.84
26807;BME280;14380;49.910;6.792;2023-07-02T06:12:43;98325.25;;;19.72;88.21
26807;BME280;14380;49.910;6.792;2023-07-02T06:15:10;98334.47;;;18.68;92.05
26807;BME280;14380;49.910;6.792;2023-07-02T06:17:36;98333.31;;;19.08;92.50
26807;BME280;14380;49.910;6.792;2023-07-02T06:20:03;98340.84;;;18.95;94.06
26807;BME280;14380;49.910;6.792;2023-07-02T06:22:31;98340.28;;;18.63;96.31
26807;BME280;14380;49.910;6.792;2023-07-02T06:24:57;98347.72;;;18.69;95.98
26807;BME280;14380;49.910;6.792;2023-07-02T06:27:25;98348.59;;;18.12;99.17
26807;BME280;14380;49.910;6.792;2023-07-02T06:29:52;98352.19;;;18.41;96.29
26807;BME280;14380;49.910;6.792;2023-07-02T06:32:18;98359.69;;;18.18;99.52
26807;BME280;14380;49.910;6.792;2023-07-02T06:34:45;98362.38;;;18.55;98.67
26807;BME280;14380;49.910;6.792;2023-07-02T06:37:11;98366.16;;;18.25;97.42
26807;BME280;14380;49.910;6.792;2023-07-02T06:39:38;98368.91;;;18.33;97.24
26807;BME280;14380;49.910;6.792;2023-07-02T06:42:05;98367.81;;;18.36;97.81
26807;BME280;14380;49.910;6.792;2023-07-02T06:44:32;98363.88;;;18.20;97.65
26807;BME280;14380;49.910;6.792;2023-07-02T06:46:59;98365.91;;;18.56;97.95
26807;BME280;14380;49.910;6.792;2023-07-02T06:49:25;98367.34;;;18.98;96.10
26807;BME280;14380;49.910;6.792;2023-07-02T06:51:52;98369.00;;;19.27;96.36
26807;BME280;14380;49.910;6.792;2023-07-02T06:54:19;98382.25;;;18.91;95.18
26807;BME280;14380;49.910;6.792;2023-07-02T06:56:45;98376.53;;;19.13;95.40
26807;BME280;14380;49.910;6.792;2023-07-02T06:59:12;98382.06;;;19.12;93.38
26807;BME280;14380;49.910;6.792;2023-07-02T07:01:40;98379.03;;;19.43;93.47
26807;BME280;14380;49.910;6.792;2023-07-02T07:04:06;98373.63;;;20.25;91.13
26807;BME280;14380;49.910;6.792;2023-07-02T07:06:33;98367.50;;;20.41;88.35
26807;BME280;14380;49.910;6.792;2023-07-02T07:08:59;98380.53;;;20.10;88.94
26807;BME280;14380;49.910;6.792;2023-07-02T07:11:26;98389.56;;;19.90;90.44
26807;BME280;14380;49.910;6.792;2023-07-02T07:13:52;98398.66;;;20.16;88.51
26807;BME280;14380;49.910;6.792;2023-07-02T07:16:19;98387.38;;;20.83;87.72
26807;BME280;14380;49.910;6.792;2023-07-02T07:18:47;98387.06;;;20.86;89.79
26807;BME280;14380;49.910;6.792;2023-07-02T07:21:13;98382.59;;;21.46;83.65
26807;BME280;14380;49.910;6.792;2023-07-02T07:23:40;98394.53;;;20.74;85.02
26807;BME280;14380;49.910;6.792;2023-07-02T07:26:07;98387.88;;;20.78;83.83
26807;BME280;14380;49.910;6.792;2023-07-02T07:28:33;98391.91;;;21.17;82.87
26807;BME280;14380;49.910;6.792;2023-07-02T07:31:00;98399.19;;;21.33;82.19
26807;BME280;14380;49.910;6.792;2023-07-02T07:33:27;98384.41;;;21.29;81.76
26807;BME280;14380;49.910;6.792;2023-07-02T07:35:56;98386.88;;;20.79;84.94
26807;BME280;14380;49.910;6.792;2023-07-02T07:38:22;98390.06;;;20.57;83.15
26807;BME280;14380;49.910;6.792;2023-07-02T07:40:49;98385.75;;;20.90;82.20
26807;BME280;14380;49.910;6.792;2023-07-02T07:43:15;98385.34;;;21.71;82.11
26807;BME280;14380;49.910;6.792;2023-07-02T07:45:42;98384.91;;;21.33;80.97
26807;BME280;14380;49.910;6.792;2023-07-02T07:48:08;98378.94;;;21.64;80.99
26807;BME280;14380;49.910;6.792;2023-07-02T07:50:35;98393.34;;;21.03;83.68
26807;BME280;14380;49.910;6.792;2023-07-02T07:53:03;98389.72;;;20.07;84.35
26807;BME280;14380;49.910;6.792;2023-07-02T07:55:29;98385.69;;;21.76;82.77
26807;BME280;14380;49.910;6.792;2023-07-02T07:57:56;98380.81;;;21.63;80.51
26807;BME280;14380;49.910;6.792;2023-07-02T08:00:22;98392.34;;;21.47;81.73
26807;BME280;14380;49.910;6.792;2023-07-02T08:02:50;98394.28;;;21.80;81.07
26807;BME280;14380;49.910;6.792;2023-07-02T08:05:20;98392.25;;;21.22;81.20
26807;BME280;14380;49.910;6.792;2023-07-02T08:07:47;98383.69;;;20.31;83.42
26807;BME280;14380;49.910;6.792;2023-07-02T08:10:15;98391.34;;;21.05;83.55
26807;BME280;14380;49.910;6.792;2023-07-02T08:12:44;98391.47;;;21.47;84.94
26807;BME280;14380;49.910;6.792;2023-07-02T08:15:12;98399.97;;;20.83;82.85
26807;BME280;14380;49.910;6.792;2023-07-02T08:17:39;98399.00;;;20.65;83.04
26807;BME280;14380;49.910;6.792;2023-07-02T08:20:06;98400.41;;;21.04;83.06
26807;BME280;14380;49.910;6.792;2023-07-02T08:22:34;98417.47;;;20.42;85.49
26807;BME280;14380;49.910;6.792;2023-07-02T08:25:01;98416.97;;;20.02;88.18
26807;BME280;14380;49.910;6.792;2023-07-02T08:27:29;98412.63;;;20.72;85.66
26807;BME280;14380;49.910;6.792;2023-07-02T08:29:55;98412.72;;;21.15;84.88
26807;BME280;14380;49.910;6.792;2023-07-02T08:32:22;98411.81;;;21.06;84.75
26807;BME280;14380;49.910;6.792;2023-07-02T08:34:48;98419.66;;;21.34;84.95
26807;BME280;14380;49.910;6.792;2023-07-02T08:37:16;98416.47;;;21.39;82.07
26807;BME280;14380;49.910;6.792;2023-07-02T08:39:42;98415.09;;;21.78;82.32
26807;BME280;14380;49.910;6.792;2023-07-02T08:42:09;98417.72;;;21.61;82.87
26807;BME280;14380;49.910;6.792;2023-07-02T08:44:37;98415.78;;;21.80;82.99
26807;BME280;14380;49.910;6.792;2023-07-02T08:47:05;98417.25;;;21.66;81.76
26807;BME280;14380;49.910;6.792;2023-07-02T08:49:32;98433.72;;;20.93;82.23
26807;BME280;14380;49.910;6.792;2023-07-02T08:51:58;98426.53;;;20.68;81.52
26807;BME280;14380;49.910;6.792;2023-07-02T08:54:25;98429.19;;;21.29;80.74
26807;BME280;14380;49.910;6.792;2023-07-02T08:56:52;98428.66;;;21.17;80.71
26807;BME280;14380;49.910;6.792;2023-07-02T08:59:18;98429.06;;;22.14;78.83
26807;BME280;14380;49.910;6.792;2023-07-02T09:01:47;98432.66;;;21.56;80.80
26807;BME280;14380;49.910;6.792;2023-07-02T09:04:18;98423.25;;;21.60;79.85
26807;BME280;14380;49.910;6.792;2023-07-02T09:06:45;98429.00;;;21.73;78.79
26807;BME280;14380;49.910;6.792;2023-07-02T09:09:12;98434.78;;;21.35;79.19
26807;BME280;14380;49.910;6.792;2023-07-02T09:11:48;98437.47;;;21.35;79.73
26807;BME280;14380;49.910;6.792;2023-07-02T09:14:25;98427.06;;;22.25;78.18
26807;BME280;14380;49.910;6.792;2023-07-02T09:17:05;98427.88;;;22.34;77.10
26807;BME280;14380;49.910;6.792;2023-07-02T09:19:32;98426.19;;;21.91;79.17
26807;BME280;14380;49.910;6.792;2023-07-02T09:21:59;98424.19;;;22.02;78.71
26807;BME280;14380;49.910;6.792;2023-07-02T09:24:27;98431.06;;;22.12;75.01
26807;BME280;14380;49.910;6.792;2023-07-02T09:26:56;98425.19;;;22.42;78.03
26807;BME280;14380;49.910;6.792;2023-07-02T09:29:25;98434.97;;;22.60;77.75
26807;BME280;14380;49.910;6.792;2023-07-02T09:31:54;98426.56;;;22.63;72.90
26807;BME280;14380;49.910;6.792;2023-07-02T09:34:26;98436.47;;;21.96;73.75
26807;BME280;14380;49.910;6.792;2023-07-02T09:36:53;98422.53;;;22.58;72.27
26807;BME280;14380;49.910;6.792;2023-07-02T09:39:24;98426.72;;;21.95;75.70
26807;BME280;14380;49.910;6.792;2023-07-02T09:41:51;98426.06;;;22.51;72.92
26807;BME280;14380;49.910;6.792;2023-07-02T09:44:19;98422.44;;;22.92;69.40
26807;BME280;14380;49.910;6.792;2023-07-02T09:46:50;98419.50;;;23.10;71.77
26807;BME280;14380;49.910;6.792;2023-07-02T09:49:21;98422.78;;;22.80;73.79
26807;BME280;14380;49.910;6.792;2023-07-02T09:51:49;98415.69;;;23.75;73.59
26807;BME280;14380;49.910;6.792;2023-07-02T09:54:16;98422.28;;;23.41;72.72
26807;BME280;14380;49.910;6.792;2023-07-02T09:56:46;98416.13;;;23.16;71.48
26807;BME280;14380;49.910;6.792;2023-07-02T09:59:13;98422.28;;;22.93;72.39
26807;BME280;14380;49.910;6.792;2023-07-02T10:01:40;98419.38;;;23.03;71.95
26807;BME280;14380;49.910;6.792;2023-07-02T10:04:12;98431.72;;;22.89;72.27
26807;BME280;14380;49.910;6.792;2023-07-02T10:06:47;98425.28;;;22.98;70.55
26807;BME280;14380;49.910;6.792;2023-07-02T10:09:15;98414.59;;;22.65;73.82
26807;BME280;14380;49.910;6.792;2023-07-02T10:11:42;98419.94;;;23.38;73.25
26807;BME280;14380;49.910;6.792;2023-07-02T10:14:09;98423.00;;;23.27;70.45
26807;BME280;14380;49.910;6.792;2023-07-02T10:16:49;98412.41;;;22.69;68.17
26807;BME280;14380;49.910;6.792;2023-07-02T10:19:15;98419.50;;;23.58;67.94
26807;BME280;14380;49.910;6.792;2023-07-02T10:21:42;98416.38;;;24.01;67.30
26807;BME280;14380;49.910;6.792;2023-07-02T10:24:13;98417.41;;;24.38;67.02
26807;BME280;14380;49.910;6.792;2023-07-02T10:26:51;98415.31;;;23.79;65.68
26807;BME280;14380;49.910;6.792;2023-07-02T10:29:19;98415.91;;;24.20;64.87
26807;BME280;14380;49.910;6.792;2023-07-02T10:31:48;98418.19;;;23.54;64.96
26807;BME280;14380;49.910;6.792;2023-07-02T10:34:15;98415.00;;;23.73;66.85
26807;BME280;14380;49.910;6.792;2023-07-02T10:36:41;98420.38;;;23.50;66.82
26807;BME280;14380;49.910;6.792;2023-07-02T10:39:08;98414.00;;;23.03;66.13
26807;BME280;14380;49.910;6.792;2023-07-02T10:41:36;98411.88;;;23.30;65.98
26807;BME280;14380;49.910;6.792;2023-07-02T10:44:07;98409.69;;;24.35;67.36
26807;BME280;14380;49.910;6.792;2023-07-02T10:46:34;98414.47;;;23.55;65.11
26807;BME280;14380;49.910;6.792;2023-07-02T10:49:01;98406.94;;;23.73;64.68
26807;BME280;14380;49.910;6.792;2023-07-02T10:51:28;98412.94;;;23.52;64.84
26807;BME280;14380;49.910;6.792;2023-07-02T10:53:58;98414.97;;;23.50;65.45
26807;BME280;14380;49.910;6.792;2023-07-02T10:56:25;98418.38;;;22.96;65.97
26807;BME280;14380;49.910;6.792;2023-07-02T10:58:53;98413.69;;;22.98;65.57
26807;BME280;14380;49.910;6.792;2023-07-02T11:01:24;98406.84;;;23.18;66.58
26807;BME280;14380;49.910;6.792;2023-07-02T11:03:59;98411.06;;;22.65;65.31
26807;BME280;14380;49.910;6.792;2023-07-02T11:06:26;98406.81;;;22.87;65.36
26807;BME280;14380;49.910;6.792;2023-07-02T11:08:53;98416.59;;;22.71;65.31
26807;BME280;14380;49.910;6.792;2023-07-02T11:11:21;98413.94;;;22.63;65.51
26807;BME280;14380;49.910;6.792;2023-07-02T11:13:49;98406.97;;;22.85;64.54
26807;BME280;14380;49.910;6.792;2023-07-02T11:16:23;98420.88;;;23.54;65.50
26807;BME280;14380;49.910;6.792;2023-07-02T11:18:52;98420.16;;;23.60;65.12
26807;BME280;14380;49.910;6.792;2023-07-02T11:21:19;98408.44;;;22.96;64.01
26807;BME280;14380;49.910;6.792;2023-07-02T11:23:46;98418.28;;;23.29;65.17
26807;BME280;14380;49.910;6.792;2023-07-02T11:26:12;98413.34;;;23.72;64.74
26807;BME280;14380;49.910;6.792;2023-07-02T11:28:48;98417.19;;;23.78;67.32
26807;BME280;14380;49.910;6.792;2023-07-02T11:31:25;98418.59;;;22.86;64.58
26807;BME280;14380;49.910;6.792;2023-07-02T11:33:53;98423.44;;;22.99;66.12
26807;BME280;14380;49.910;6.792;2023-07-02T11:36:21;98424.56;;;23.13;66.22
26807;BME280;14380;49.910;6.792;2023-07-02T11:38:49;98425.44;;;22.97;63.85
26807;BME280;14380;49.910;6.792;2023-07-02T11:41:15;98427.00;;;23.39;64.43
26807;BME280;14380;49.910;6.792;2023-07-02T11:43:42;98422.72;;;23.53;63.39
26807;BME280;14380;49.910;6.792;2023-07-02T11:46:08;98420.00;;;23.85;65.68
26807;BME280;14380;49.910;6.792;2023-07-02T11:48:36;98416.38;;;23.69;63.32
26807;BME280;14380;49.910;6.792;2023-07-02T11:51:03;98414.38;;;23.95;62.90
26807;BME280;14380;49.910;6.792;2023-07-02T11:53:30;98429.16;;;23.75;64.79
26807;BME280;14380;49.910;6.792;2023-07-02T11:55:56;98425.13;;;23.71;63.24
26807;BME280;14380;49.910;6.792;2023-07-02T11:58:23;98417.56;;;23.43;62.16
26807;BME280;14380;49.910;6.792;2023-07-02T12:00:49;98409.34;;;24.15;61.75
26807;BME280;14380;49.910;6.792;2023-07-02T12:03:16;98414.44;;;24.10;62.77
26807;BME280;14380;49.910;6.792;2023-07-02T12:05:44;98416.38;;;24.01;62.97
26807;BME280;14380;49.910;6.792;2023-07-02T12:08:10;98409.72;;;24.12;63.02
26807;BME280;14380;49.910;6.792;2023-07-02T12:10:37;98407.63;;;23.99;62.34
26807;BME280;14380;49.910;6.792;2023-07-02T12:13:03;98419.16;;;23.61;61.38
26807;BME280;14380;49.910;6.792;2023-07-02T12:15:30;98413.94;;;23.59;61.66
26807;BME280;14380;49.910;6.792;2023-07-02T12:17:57;98415.91;;;24.20;63.47
26807;BME280;14380;49.910;6.792;2023-07-02T12:20:23;98421.09;;;24.22;63.71
26807;BME280;14380;49.910;6.792;2023-07-02T12:22:51;98417.19;;;23.78;61.44
26807;BME280;14380;49.910;6.792;2023-07-02T12:25:18;98413.28;;;24.65;62.29
26807;BME280;14380;49.910;6.792;2023-07-02T12:27:45;98410.50;;;24.59;60.59
26807;BME280;14380;49.910;6.792;2023-07-02T12:30:11;98409.69;;;24.73;62.89
26807;BME280;14380;49.910;6.792;2023-07-02T12:32:42;98410.38;;;24.14;61.67
26807;BME280;14380;49.910;6.792;2023-07-02T12:35:09;98409.81;;;24.42;61.34
26807;BME280;14380;49.910;6.792;2023-07-02T12:37:42;98408.13;;;24.41;62.17
26807;BME280;14380;49.910;6.792;2023-07-02T12:40:11;98403.44;;;25.33;61.28
26807;BME280;14380;49.910;6.792;2023-07-02T12:42:37;98407.31;;;25.45;60.76
26807;BME280;14380;49.910;6.792;2023-07-02T12:45:05;98409.88;;;25.17;61.44
26807;BME280;14380;49.910;6.792;2023-07-02T12:47:32;98401.81;;;25.38;58.55
26807;BME280;14380;49.910;6.792;2023-07-02T12:49:59;98405.41;;;25.97;57.56
26807;BME280;14380;49.910;6.792;2023-07-02T12:52:25;98403.22;;;25.49;57.44
26807;BME280;14380;49.910;6.792;2023-07-02T12:54:52;98403.91;;;25.21;56.45
26807;BME280;14380;49.910;6.792;2023-07-02T12:57:20;98401.13;;;25.15;56.05
26807;BME280;14380;49.910;6.792;2023-07-02T12:59:46;98389.09;;;25.91;56.09